Time;durP1;ratioP1;P1;durP2;ratioP2;P2;SDS_P1;SDS_P2;PMS_P1;PMS_P2;Temp;Humidity;BMP_temperature;BMP_pressure;BME280_temperature;BME280_humidity;BME280_pressure;Samples;Min_cycle;Max_cycle;Signal;HPM_P1;HPM_P2
2023/02/16 00:00:14;;;;;;;;;;;;;;;-4.06;86.62;94590.22;5008288;28;20609;-48
2023/02/16 00:02:39;;;;;;;;;;;;;;;-4.32;87.60;94594.03;5008012;28;19936;-48
2023/02/16 00:05:11;;;;;;;;;;;;;;;-4.56;88.89;94595.41;5008130;28;20385;-49
2023/02/16 00:07:37;;;;;;;;;;;;;;;-4.54;89.15;94588.44;5007034;28;20598;-47
2023/02/16 00:10:02;;;;;;;;;;;;;;;-4.39;88.58;94594.19;5016435;28;19929;-48
2023/02/16 00:15:15;;;;;;;;;;;;;;;-4.63;86.74;94597.13;5022118;28;19990;-47
2023/02/16 00:17:41;;;;;;;;;;;;;;;-4.71;87.10;94598.47;5011441;28;19922;-48
2023/02/16 00:20:12;;;;;;;;;;;;;;;-4.66;87.09;94595.25;5011918;28;19924;-48
2023/02/16 00:22:37;;;;;;;;;;;;;;;-4.39;86.96;94594.19;5011833;28;19952;-48
2023/02/16 00:25:03;;;;;;;;;;;;;;;-4.37;85.83;94597.22;5010940;28;20374;-48
2023/02/16 00:27:28;;;;;;;;;;;;;;;-4.41;85.45;94596.56;5011506;28;19957;-49
2023/02/16 00:29:54;;;;;;;;;;;;;;;-4.70;86.28;94591.91;5011508;28;19914;-48
2023/02/16 00:32:19;;;;;;;;;;;;;;;-4.43;85.42;94590.84;5021923;28;20408;-48
2023/02/16 00:34:44;;;;;;;;;;;;;;;-4.41;84.88;94597.31;5010693;28;19925;-49
2023/02/16 00:37:10;;;;;;;;;;;;;;;-4.29;84.06;94591.25;5010745;28;19921;-48
2023/02/16 00:39:36;;;;;;;;;;;;;;;-4.36;84.29;94590.66;5010619;28;19917;-49
2023/02/16 00:42:02;;;;;;;;;;;;;;;-4.34;84.65;94591.75;5010598;28;20310;-48
2023/02/16 00:44:35;;;;;;;;;;;;;;;-4.37;84.06;94586.44;5009265;28;19945;-48
2023/02/16 00:47:09;;;;;;;;;;;;;;;-4.31;83.99;94584.75;5009200;28;20040;-48
2023/02/16 00:49:34;;;;;;;;;;;;;;;-4.32;83.90;94588.63;5010558;28;19914;-48
2023/02/16 00:52:00;;;;;;;;;;;;;;;-4.36;84.46;94582.59;5010428;28;20408;-49
2023/02/16 00:54:25;;;;;;;;;;;;;;;-4.43;85.42;94574.69;5008946;28;19984;-48
2023/02/16 00:56:50;;;;;;;;;;;;;;;-4.68;86.75;94570.69;5011509;28;19924;-48
2023/02/16 00:59:17;;;;;;;;;;;;;;;-4.79;87.26;94572.16;5016348;28;19921;-47
2023/02/16 01:01:42;;;;;;;;;;;;;;;-4.70;86.35;94575.75;5008938;28;19925;-49
2023/02/16 01:04:08;;;;;;;;;;;;;;;-4.89;87.02;94571.22;5010188;28;19940;-48
2023/02/16 01:12:03;;;;;;;;;;;;;;;-4.80;86.30;94571.38;5029700;28;19944;-48
2023/02/16 01:14:28;;;;;;;;;;;;;;;-4.87;85.64;94576.94;5025188;28;19983;-48
2023/02/16 01:16:54;;;;;;;;;;;;;;;-5.19;85.95;94574.25;5009800;28;20413;-48
2023/02/16 01:19:19;;;;;;;;;;;;;;;-5.31;86.35;94564.19;5009620;28;20325;-49
2023/02/16 01:21:44;;;;;;;;;;;;;;;-5.29;87.27;94561.81;5009673;28;19918;-48
2023/02/16 01:24:09;;;;;;;;;;;;;;;-5.05;87.14;94557.03;5009479;28;19914;-49
2023/02/16 01:26:39;;;;;;;;;;;;;;;-5.05;86.43;94565.09;5009296;28;20348;-48
2023/02/16 01:29:04;;;;;;;;;;;;;;;-5.09;86.97;94559.78;5009822;28;19917;-48
2023/02/16 01:31:29;;;;;;;;;;;;;;;-5.31;87.70;94552.66;5009025;28;19968;-49
2023/02/16 01:33:54;;;;;;;;;;;;;;;-5.46;87.76;94552.97;5022686;28;20012;-47
2023/02/16 01:36:24;;;;;;;;;;;;;;;-5.41;87.96;94552.47;5028957;28;20007;-50
2023/02/16 01:38:49;;;;;;;;;;;;;;;-5.10;88.17;94550.22;5029337;28;19921;-48
2023/02/16 01:41:28;;;;;;;;;;;;;;;-5.00;87.43;94553.84;5028899;28;19939;-48
2023/02/16 01:44:04;;;;;;;;;;;;;;;-4.95;86.68;94548.69;5027818;28;20321;-48
2023/02/16 01:46:37;;;;;;;;;;;;;;;-4.96;85.23;94549.09;5029160;28;20494;-48
2023/02/16 01:49:03;;;;;;;;;;;;;;;-4.92;84.45;94553.22;5028010;28;20667;-49
2023/02/16 01:51:30;;;;;;;;;;;;;;;-5.00;84.83;94554.56;5028650;28;20235;-48
2023/02/16 01:54:06;;;;;;;;;;;;;;;-4.99;84.96;94549.94;5028799;28;19952;-49
2023/02/16 01:56:38;;;;;;;;;;;;;;;-4.92;84.57;94552.47;5027519;28;20372;-49
2023/02/16 01:59:05;;;;;;;;;;;;;;;-5.07;84.48;94552.06;5015884;28;19921;-48
2023/02/16 02:01:50;;;;;;;;;;;;;;;-5.26;86.22;94554.84;5007780;28;19966;-50
2023/02/16 02:07:24;;;;;;;;;;;;;;;-5.42;87.16;94544.81;5008912;28;19973;-48
2023/02/16 02:09:54;;;;;;;;;;;;;;;-5.24;86.92;94547.84;5009069;28;20340;-48
2023/02/16 02:12:22;;;;;;;;;;;;;;;-5.25;85.79;94542.88;5007520;28;19913;-47
2023/02/16 02:14:48;;;;;;;;;;;;;;;-5.33;85.15;94549.63;5008562;28;20394;-48
2023/02/16 02:17:14;;;;;;;;;;;;;;;-5.21;84.89;94536.25;5008736;28;19917;-48
2023/02/16 02:20:00;;;;;;;;;;;;;;;-5.29;85.70;94539.53;5007322;28;20574;-50
2023/02/16 02:25:31;;;;;;;;;;;;;;;-5.21;86.54;94535.47;5008950;28;20750;-49
2023/02/16 02:27:56;;;;;;;;;;;;;;;-5.39;86.83;94541.28;5025639;28;20423;-49
2023/02/16 02:30:21;;;;;;;;;;;;;;;-5.60;86.47;94544.47;5028483;28;19921;-48
2023/02/16 02:33:05;;;;;;;;;;;;;;;-5.51;87.31;94544.66;5012358;28;20408;-49
2023/02/16 02:35:46;;;;;;;;;;;;;;;-5.49;87.12;94536.91;5007858;28;20314;-48
2023/02/16 02:38:21;;;;;;;;;;;;;;;-5.63;89.14;94537.25;5008252;28;19922;-49
2023/02/16 02:40:46;;;;;;;;;;;;;;;-5.65;91.21;94534.97;5008479;28;20305;-49
2023/02/16 02:43:30;;;;;;;;;;;;;;;-5.58;92.69;94532.13;5008289;28;19918;-49
2023/02/16 02:45:57;;;;;;;;;;;;;;;-5.63;93.63;94534.56;5007485;28;19914;-48
2023/02/16 02:48:22;;;;;;;;;;;;;;;-5.67;94.23;94536.53;5007803;28;20019;-49
2023/02/16 02:51:28;;;;;;;;;;;;;;;-5.60;94.64;94537.16;5008014;28;20032;-48
2023/02/16 03:02:25;;;;;;;;;;;;;;;-5.49;93.27;94542.28;5026614;28;19924;-48
2023/02/16 03:04:51;;;;;;;;;;;;;;;-5.42;93.32;94542.13;5027679;28;20304;-48
2023/02/16 03:07:16;;;;;;;;;;;;;;;-5.52;93.73;94543.13;5026160;28;19917;-49
2023/02/16 03:09:42;;;;;;;;;;;;;;;-5.61;93.97;94532.19;5026366;28;19928;-48
2023/02/16 03:14:53;;;;;;;;;;;;;;;-5.65;95.90;94534.97;5021129;28;19940;-50
2023/02/16 03:31:21;;;;;;;;;;;;;;;-5.44;95.26;94531.03;5026104;28;20596;-48
2023/02/16 03:33:46;;;;;;;;;;;;;;;-5.33;94.86;94536.94;5022286;28;19925;-49
2023/02/16 03:36:12;;;;;;;;;;;;;;;-5.20;93.96;94532.38;5006674;28;19918;-49
2023/02/16 03:38:38;;;;;;;;;;;;;;;-5.43;93.38;94524.47;5005949;28;19921;-48
2023/02/16 03:41:03;;;;;;;;;;;;;;;-5.45;93.78;94524.13;5006757;28;19920;-49
2023/02/16 03:43:29;;;;;;;;;;;;;;;-5.51;94.13;94523.88;5007966;28;20348;-49
2023/02/16 03:45:54;;;;;;;;;;;;;;;-5.54;93.32;94532.03;5007803;28;19956;-50
2023/02/16 03:48:19;;;;;;;;;;;;;;;-5.43;93.07;94525.22;5011629;28;19921;-50
2023/02/16 03:50:45;;;;;;;;;;;;;;;-5.42;93.00;94526.00;5011317;28;20461;-49
2023/02/16 03:53:10;;;;;;;;;;;;;;;-5.46;93.45;94534.13;5011565;28;19955;-50
2023/02/16 03:55:36;;;;;;;;;;;;;;;-5.41;94.39;94539.03;5011100;28;20393;-49
2023/02/16 03:58:03;;;;;;;;;;;;;;;-5.44;95.22;94539.09;5011253;28;19979;-48
2023/02/16 04:00:28;;;;;;;;;;;;;;;-5.40;95.39;94532.47;5011330;28;19917;-48
2023/02/16 04:02:53;;;;;;;;;;;;;;;-5.61;95.37;94526.81;5011233;28;19918;-49
2023/02/16 04:05:18;;;;;;;;;;;;;;;-5.77;95.72;94524.88;5011723;28;19975;-48
2023/02/16 04:07:44;;;;;;;;;;;;;;;-5.68;96.06;94530.44;5011141;28;20505;-50
2023/02/16 04:10:09;;;;;;;;;;;;;;;-5.78;95.92;94525.28;5011228;28;19914;-49
2023/02/16 04:12:37;;;;;;;;;;;;;;;-5.78;96.05;94528.72;5011031;28;19917;-49
2023/02/16 04:15:04;;;;;;;;;;;;;;;-5.75;95.92;94530.59;5018705;28;19924;-48
2023/02/16 04:17:29;;;;;;;;;;;;;;;-5.70;95.46;94538.16;5031021;28;19952;-50
2023/02/16 04:19:54;;;;;;;;;;;;;;;-5.63;94.40;94531.88;5030570;28;19913;-49
2023/02/16 04:22:19;;;;;;;;;;;;;;;-5.74;94.49;94529.38;5030773;28;19976;-48
2023/02/16 04:24:45;;;;;;;;;;;;;;;-5.77;94.32;94527.56;5030482;28;19920;-48
2023/02/16 04:27:10;;;;;;;;;;;;;;;-5.94;94.32;94533.34;5019704;28;19964;-49
2023/02/16 04:29:35;;;;;;;;;;;;;;;-5.84;94.78;94529.66;5010761;28;19918;-50
2023/02/16 04:32:00;;;;;;;;;;;;;;;-5.89;94.74;94519.41;5010524;28;19956;-49
2023/02/16 04:34:26;;;;;;;;;;;;;;;-5.79;95.28;94515.69;5028039;28;19925;-49
2023/02/16 04:36:51;;;;;;;;;;;;;;;-5.86;94.97;94523.94;5030249;28;20379;-49
2023/02/16 04:39:16;;;;;;;;;;;;;;;-5.80;94.51;94530.31;5030157;28;19928;-49
2023/02/16 04:41:41;;;;;;;;;;;;;;;-5.65;94.33;94526.16;5030676;28;19928;-49
2023/02/16 04:44:07;;;;;;;;;;;;;;;-5.72;93.96;94529.00;5029877;28;19913;-48
2023/02/16 04:46:32;;;;;;;;;;;;;;;-5.89;93.86;94527.47;5030445;28;19921;-49
2023/02/16 04:48:57;;;;;;;;;;;;;;;-5.86;94.71;94522.03;5030135;28;19913;-49
2023/02/16 04:51:23;;;;;;;;;;;;;;;-5.93;95.41;94519.47;5020594;28;19927;-49
2023/02/16 04:53:48;;;;;;;;;;;;;;;-5.75;95.43;94516.38;5010342;28;19917;-49
2023/02/16 04:56:13;;;;;;;;;;;;;;;-5.93;95.96;94519.47;5010145;28;19917;-49
2023/02/16 04:58:39;;;;;;;;;;;;;;;-5.84;95.78;94521.59;5017645;28;19921;-49
2023/02/16 05:01:04;;;;;;;;;;;;;;;-6.01;96.30;94517.34;5009129;28;19917;-48
2023/02/16 05:03:29;;;;;;;;;;;;;;;-6.04;96.81;94523.59;5010143;28;19917;-48
2023/02/16 05:05:55;;;;;;;;;;;;;;;-5.89;97.35;94522.09;5010220;28;20004;-49
2023/02/16 05:08:20;;;;;;;;;;;;;;;-5.83;96.62;94525.78;5009755;28;20302;-50
2023/02/16 05:14:40;;;;;;;;;;;;;;;-6.02;96.27;94527.34;5009933;28;19918;-49
2023/02/16 05:16:15;;;;;;;;;;;;;;;-5.83;95.83;94528.47;5009731;28;19984;-49
2023/02/16 05:18:40;;;;;;;;;;;;;;;-5.82;95.28;94522.66;5009613;28;19934;-49
2023/02/16 05:23:49;;;;;;;;;;;;;;;-6.05;94.89;94532.81;5009700;28;19943;-49
2023/02/16 05:26:14;;;;;;;;;;;;;;;-5.95;94.45;94529.91;5009666;28;19921;-49
2023/02/16 05:28:39;;;;;;;;;;;;;;;-5.90;94.72;94534.78;5009507;28;19925;-49
2023/02/16 05:31:05;;;;;;;;;;;;;;;-5.93;94.25;94535.59;5012558;28;19917;-49
2023/02/16 05:33:30;;;;;;;;;;;;;;;-5.75;94.05;94535.97;5016853;28;20984;-49
2023/02/16 05:35:55;;;;;;;;;;;;;;;-5.88;93.58;94537.81;5009558;28;20037;-49
2023/02/16 05:38:20;;;;;;;;;;;;;;;-5.57;93.74;94547.09;5009358;28;19921;-49
2023/02/16 05:40:46;;;;;;;;;;;;;;;-5.54;92.29;94548.94;5009166;28;19972;-49
2023/02/16 05:43:12;;;;;;;;;;;;;;;-5.59;92.22;94551.38;5009568;28;20004;-48
2023/02/16 05:45:37;;;;;;;;;;;;;;;-5.72;92.23;94555.88;5009122;28;20000;-49
2023/02/16 05:48:02;;;;;;;;;;;;;;;-6.05;92.42;94560.44;5021531;28;19917;-49
2023/02/16 05:50:28;;;;;;;;;;;;;;;-6.05;92.73;94568.53;5028991;28;19921;-49
2023/02/16 05:52:53;;;;;;;;;;;;;;;-5.99;92.86;94563.41;5028669;28;20320;-48
2023/02/16 05:55:18;;;;;;;;;;;;;;;-6.03;92.12;94573.47;5027363;28;19921;-48
2023/02/16 05:57:43;;;;;;;;;;;;;;;-6.08;91.57;94574.72;5019766;28;19917;-50
2023/02/16 06:00:09;;;;;;;;;;;;;;;-6.02;92.51;94564.97;5009326;28;20368;-48
2023/02/16 06:02:34;;;;;;;;;;;;;;;-5.81;92.13;94574.53;5008500;28;20405;-49
2023/02/16 06:04:59;;;;;;;;;;;;;;;-5.64;91.28;94568.75;5008740;28;19917;-48
2023/02/16 06:07:25;;;;;;;;;;;;;;;-5.53;90.71;94563.16;5008775;28;19917;-49
2023/02/16 06:09:50;;;;;;;;;;;;;;;-5.55;89.75;94562.81;5008187;28;20032;-49
2023/02/16 06:12:15;;;;;;;;;;;;;;;-5.67;90.42;94568.81;5007540;28;19936;-49
2023/02/16 06:14:41;;;;;;;;;;;;;;;-5.65;90.45;94563.81;5013456;28;20381;-49
2023/02/16 06:17:06;;;;;;;;;;;;;;;-5.42;90.47;94560.97;5028450;28;19916;-50
2023/02/16 06:19:31;;;;;;;;;;;;;;;-5.39;90.10;94558.19;5028182;28;20301;-49
2023/02/16 06:21:56;;;;;;;;;;;;;;;-5.21;90.44;94563.16;5028470;28;19924;-49
2023/02/16 06:24:22;;;;;;;;;;;;;;;-4.75;89.86;94562.03;5028171;28;20061;-48
2023/02/16 06:26:47;;;;;;;;;;;;;;;-4.52;87.40;94556.41;5020129;28;19917;-51
2023/02/16 06:29:12;;;;;;;;;;;;;;;-4.28;85.50;94565.03;5008574;28;19940;-49
2023/02/16 06:31:37;;;;;;;;;;;;;;;-4.02;84.97;94564.69;5015658;28;19923;-50
2023/02/16 06:34:03;;;;;;;;;;;;;;;-3.99;84.42;94563.06;5011352;28;20004;-50
2023/02/16 06:36:28;;;;;;;;;;;;;;;-3.70;84.11;94579.94;5008048;28;20445;-50
2023/02/16 06:38:53;;;;;;;;;;;;;;;-3.20;82.82;94574.56;5008251;28;19928;-51
2023/02/16 06:41:34;;;;;;;;;;;;;;;-2.95;80.94;94578.44;5007978;28;20416;-49
2023/02/16 06:44:00;;;;;;;;;;;;;;;-3.27;80.17;94579.47;5018207;28;20004;-50
2023/02/16 06:46:25;;;;;;;;;;;;;;;-3.62;81.20;94583.97;5027787;28;20024;-51
2023/02/16 06:48:51;;;;;;;;;;;;;;;-3.29;81.49;94581.84;5026468;28;19917;-51
2023/02/16 06:51:16;;;;;;;;;;;;;;;-3.06;80.43;94595.00;5027511;28;19998;-50
2023/02/16 06:53:42;;;;;;;;;;;;;;;-3.00;79.79;94585.16;5026431;28;19920;-49
2023/02/16 06:56:07;;;;;;;;;;;;;;;-2.13;79.26;94604.28;5027853;28;19913;-49
2023/02/16 06:58:32;;;;;;;;;;;;;;;-1.07;74.77;94599.22;5012085;28;20313;-49
2023/02/16 07:00:57;;;;;;;;;;;;;;;-0.52;71.30;94602.81;5007909;28;19920;-49
2023/02/16 07:03:23;;;;;;;;;;;;;;;-0.56;70.30;94604.94;5007852;28;19917;-49
2023/02/16 07:05:49;;;;;;;;;;;;;;;-0.19;68.57;94601.06;5007871;28;19917;-48
2023/02/16 07:08:14;;;;;;;;;;;;;;;0.71;66.01;94599.50;5007867;28;19951;-49
2023/02/16 07:10:45;;;;;;;;;;;;;;;1.17;65.87;94603.53;5007945;28;20023;-48
2023/02/16 07:13:11;;;;;;;;;;;;;;;2.01;62.60;94603.38;5007958;28;19932;-48
2023/02/16 07:15:36;;;;;;;;;;;;;;;3.08;60.68;94597.31;5020243;28;19917;-50
2023/02/16 07:18:01;;;;;;;;;;;;;;;4.05;56.76;94597.69;5027474;28;19943;-50
2023/02/16 07:20:27;;;;;;;;;;;;;;;4.70;55.36;94590.69;5027524;28;19917;-52
2023/02/16 07:22:52;;;;;;;;;;;;;;;6.60;50.84;94594.13;5033627;28;19948;-49
2023/02/16 07:25:17;;;;;;;;;;;;;;;6.89;47.59;94590.94;5034246;28;20308;-50
2023/02/16 07:27:43;;;;;;;;;;;;;;;7.90;45.56;94593.16;5018086;28;19918;-50
2023/02/16 07:30:09;;;;;;;;;;;;;;;7.45;46.21;94597.22;5014396;28;19913;-48
2023/02/16 07:32:35;;;;;;;;;;;;;;;9.20;43.38;94576.25;5016201;28;19933;-50
2023/02/16 07:35:00;;;;;;;;;;;;;;;8.89;42.83;94571.97;5033449;28;19925;-48
2023/02/16 07:37:25;;;;;;;;;;;;;;;9.85;42.27;94574.19;5033768;28;19936;-49
2023/02/16 07:39:51;;;;;;;;;;;;;;;10.90;40.70;94570.16;5027140;28;19928;-49
2023/02/16 07:42:17;;;;;;;;;;;;;;;11.30;39.30;94574.59;5014066;28;19917;-51
2023/02/16 07:44:42;;;;;;;;;;;;;;;11.66;37.65;94577.78;5014003;28;20409;-50
2023/02/16 07:47:07;;;;;;;;;;;;;;;12.34;37.98;94575.34;5013823;28;19991;-49
2023/02/16 07:49:33;;;;;;;;;;;;;;;9.55;42.13;94570.72;5014166;28;19949;-49
2023/02/16 07:51:58;;;;;;;;;;;;;;;8.42;45.01;94562.97;5014334;28;20032;-49
2023/02/16 07:54:23;;;;;;;;;;;;;;;9.87;43.29;94555.84;5013875;28;19917;-49
2023/02/16 07:56:48;;;;;;;;;;;;;;;11.04;40.44;94566.22;5014130;28;19924;-50
2023/02/16 07:59:14;;;;;;;;;;;;;;;10.23;40.29;94564.00;5026951;28;19961;-51
2023/02/16 08:01:40;;;;;;;;;;;;;;;11.24;40.91;94560.13;5033815;28;19964;-48
2023/02/16 08:04:06;;;;;;;;;;;;;;;12.48;38.27;94560.19;5033952;28;19917;-50
2023/02/16 08:06:33;;;;;;;;;;;;;;;13.28;36.50;94557.44;5033726;28;19924;-49
2023/02/16 08:08:58;;;;;;;;;;;;;;;13.99;35.11;94556.94;5033654;28;19917;-49
2023/02/16 08:11:24;;;;;;;;;;;;;;;14.40;34.52;94556.13;5033620;28;19924;-49
2023/02/16 08:13:49;;;;;;;;;;;;;;;11.91;39.55;94565.28;5034055;28;19947;-49
2023/02/16 08:16:18;;;;;;;;;;;;;;;14.31;35.12;94559.41;5016107;28;20317;-49
2023/02/16 08:18:44;;;;;;;;;;;;;;;14.19;35.88;94553.38;5013788;28;20344;-49
2023/02/16 08:21:13;;;;;;;;;;;;;;;15.99;34.14;94562.88;5013962;28;19914;-49
2023/02/16 08:23:46;;;;;;;;;;;;;;;16.84;31.46;94570.56;5013987;28;19913;-50
2023/02/16 08:26:12;;;;;;;;;;;;;;;17.11;32.31;94563.94;5013750;28;19921;-50
2023/02/16 08:28:37;;;;;;;;;;;;;;;17.31;31.60;94562.16;5013913;28;20476;-50
2023/02/16 08:31:05;;;;;;;;;;;;;;;17.81;30.88;94557.41;5016522;28;19917;-49
2023/02/16 08:33:31;;;;;;;;;;;;;;;18.30;30.05;94562.22;5017795;28;20007;-49
2023/02/16 08:35:57;;;;;;;;;;;;;;;18.79;29.57;94554.47;5016500;28;20356;-49
2023/02/16 08:38:23;;;;;;;;;;;;;;;18.13;29.79;94552.50;5030339;28;19925;-49
2023/02/16 08:40:49;;;;;;;;;;;;;;;17.94;30.87;94557.88;5030148;28;19972;-49
2023/02/16 08:43:14;;;;;;;;;;;;;;;18.34;30.62;94560.50;5030697;28;19917;-49
2023/02/16 08:45:46;;;;;;;;;;;;;;;19.35;29.16;94552.69;5030167;28;19924;-49
2023/02/16 08:48:12;;;;;;;;;;;;;;;17.39;30.90;94562.84;5029984;28;19921;-49
2023/02/16 08:50:37;;;;;;;;;;;;;;;17.45;31.52;94555.75;5030518;28;19932;-49
2023/02/16 08:53:02;;;;;;;;;;;;;;;16.61;33.16;94556.69;5030196;28;20050;-51
2023/02/16 08:55:28;;;;;;;;;;;;;;;18.07;30.60;94549.19;5029831;28;19913;-49
2023/02/16 08:57:53;;;;;;;;;;;;;;;18.95;29.60;94563.41;5019995;28;19921;-49
2023/02/16 09:00:34;;;;;;;;;;;;;;;19.03;29.80;94555.69;5010356;28;20377;-50
2023/02/16 09:02:59;;;;;;;;;;;;;;;18.87;29.53;94559.97;5010395;28;19917;-48
2023/02/16 09:05:26;;;;;;;;;;;;;;;19.48;29.64;94563.53;5010111;28;20043;-51
2023/02/16 09:07:52;;;;;;;;;;;;;;;19.36;28.86;94562.56;5010228;28;19922;-50
2023/02/16 09:10:18;;;;;;;;;;;;;;;18.05;30.05;94559.47;5010435;28;20316;-51
2023/02/16 09:12:47;;;;;;;;;;;;;;;18.19;30.50;94561.38;5009969;28;20728;-49
2023/02/16 09:15:13;;;;;;;;;;;;;;;18.94;29.52;94561.97;5019123;28;20326;-49
2023/02/16 09:17:38;;;;;;;;;;;;;;;18.44;30.70;94555.00;5029951;28;19923;-50
2023/02/16 09:20:04;;;;;;;;;;;;;;;18.84;28.96;94553.47;5029590;28;19913;-50
2023/02/16 09:22:29;;;;;;;;;;;;;;;17.35;29.51;94560.47;5028052;28;19916;-50
2023/02/16 09:24:54;;;;;;;;;;;;;;;17.89;29.89;94552.50;5029871;28;19996;-50
2023/02/16 09:27:20;;;;;;;;;;;;;;;19.36;29.13;94551.38;5017094;28;19925;-49
2023/02/16 09:29:45;;;;;;;;;;;;;;;20.16;28.31;94545.66;5009538;28;19920;-49
2023/02/16 09:32:10;;;;;;;;;;;;;;;19.53;28.09;94545.72;5017340;28;19925;-49
2023/02/16 09:34:36;;;;;;;;;;;;;;;20.31;27.57;94550.34;5029003;28;19921;-50
2023/02/16 09:37:02;;;;;;;;;;;;;;;20.90;25.59;94542.13;5029216;28;19917;-50
2023/02/16 09:39:27;;;;;;;;;;;;;;;20.78;26.85;94538.44;5029077;28;19974;-50
2023/02/16 09:42:01;;;;;;;;;;;;;;;20.95;27.39;94532.66;5028970;28;20363;-49
2023/02/16 09:44:53;;;;;;;;;;;;;;;21.11;25.18;94539.47;5029270;28;20320;-51
2023/02/16 09:47:23;;;;;;;;;;;;;;;19.74;27.44;94534.03;4998421;28;20576;-50
2023/02/16 09:49:48;;;;;;;;;;;;;;;19.19;28.02;94526.19;5029089;28;19924;-49
2023/02/16 09:52:14;;;;;;;;;;;;;;;19.92;26.91;94524.22;5029013;28;20569;-49
2023/02/16 09:54:39;;;;;;;;;;;;;;;21.22;25.10;94518.50;5028754;28;19917;-50
2023/02/16 09:57:10;;;;;;;;;;;;;;;20.87;26.46;94515.25;5025506;28;19913;-48
2023/02/16 09:59:54;;;;;;;;;;;;;;;21.84;24.58;94514.50;5019717;28;20647;-50
2023/02/16 10:02:29;;;;;;;;;;;;;;;22.15;24.16;94510.94;5009264;28;19918;-49
2023/02/16 10:04:55;;;;;;;;;;;;;;;21.27;24.12;94516.72;5009444;28;19917;-50
2023/02/16 10:07:39;;;;;;;;;;;;;;;21.92;23.06;94505.84;5008874;28;19917;-49
2023/02/16 10:10:05;;;;;;;;;;;;;;;23.29;22.59;94503.72;5009046;28;19920;-50
2023/02/16 10:12:32;;;;;;;;;;;;;;;22.04;22.23;94503.91;5007977;28;19917;-49
2023/02/16 10:15:08;;;;;;;;;;;;;;;20.92;24.24;94500.16;5007358;28;19917;-50
2023/02/16 10:17:33;;;;;;;;;;;;;;;21.21;25.87;94502.22;5007855;28;19922;-48
2023/02/16 10:20:24;;;;;;;;;;;;;;;20.85;24.32;94492.66;5008940;28;19924;-50
2023/02/16 10:23:08;;;;;;;;;;;;;;;20.84;25.16;94499.56;4985536;28;19918;-51
2023/02/16 10:25:45;;;;;;;;;;;;;;;21.42;23.61;94489.00;5008710;28;19918;-50
2023/02/16 10:28:10;;;;;;;;;;;;;;;19.93;25.04;94488.50;5024524;28;19917;-50
2023/02/16 10:30:35;;;;;;;;;;;;;;;18.84;26.89;94496.78;5008890;28;20405;-50
2023/02/16 10:33:23;;;;;;;;;;;;;;;19.22;26.10;94485.09;5018945;28;19913;-49
2023/02/16 10:35:49;;;;;;;;;;;;;;;20.47;25.37;94489.06;5007229;28;19925;-50
2023/02/16 10:38:26;;;;;;;;;;;;;;;20.27;25.20;94482.72;5007208;28;19917;-50
2023/02/16 10:41:00;;;;;;;;;;;;;;;21.02;24.08;94486.84;5007152;28;19988;-49
2023/02/16 10:43:26;;;;;;;;;;;;;;;21.59;23.45;94485.28;5008327;28;19929;-49
2023/02/16 10:45:57;;;;;;;;;;;;;;;20.10;25.34;94483.53;5008394;28;19914;-50
2023/02/16 10:48:23;;;;;;;;;;;;;;;21.39;23.40;94481.03;5007195;28;20041;-49
2023/02/16 10:50:48;;;;;;;;;;;;;;;21.54;24.79;94475.06;5008096;28;20660;-50
2023/02/16 10:53:18;;;;;;;;;;;;;;;21.61;24.94;94472.06;5008486;28;19918;-50
2023/02/16 10:55:45;;;;;;;;;;;;;;;20.63;25.48;94473.44;5006705;28;19913;-49
2023/02/16 10:58:21;;;;;;;;;;;;;;;21.42;25.84;94471.44;5015983;28;19925;-50
2023/02/16 11:00:55;;;;;;;;;;;;;;;21.46;25.49;94468.91;5006855;28;19922;-51
2023/02/16 11:03:22;;;;;;;;;;;;;;;20.50;25.52;94474.63;5006745;28;19913;-48
2023/02/16 11:05:48;;;;;;;;;;;;;;;20.30;25.03;94470.31;5008242;28;19918;-51
2023/02/16 11:08:13;;;;;;;;;;;;;;;18.75;26.33;94466.69;5007978;28;20401;-50
2023/02/16 11:10:38;;;;;;;;;;;;;;;19.60;26.09;94462.88;5006772;28;19917;-50
2023/02/16 11:13:04;;;;;;;;;;;;;;;20.32;25.02;94459.25;5008312;28;20488;-49
2023/02/16 11:15:29;;;;;;;;;;;;;;;20.09;26.01;94464.50;5007783;28;20467;-49
2023/02/16 11:17:59;;;;;;;;;;;;;;;18.22;27.35;94458.13;5007900;28;19987;-50
2023/02/16 11:20:32;;;;;;;;;;;;;;;19.69;27.51;94450.97;5006589;28;20451;-50
2023/02/16 11:23:16;;;;;;;;;;;;;;;19.52;27.29;94457.41;5006481;28;19913;-48
2023/02/16 11:25:41;;;;;;;;;;;;;;;19.98;26.15;94451.06;5021401;28;19921;-50
2023/02/16 11:28:10;;;;;;;;;;;;;;;20.24;24.03;94453.03;5008898;28;19928;-51
2023/02/16 11:30:36;;;;;;;;;;;;;;;20.30;25.50;94447.88;5006346;28;19921;-50
2023/02/16 11:33:03;;;;;;;;;;;;;;;20.42;25.27;94445.97;5019219;28;19952;-49
2023/02/16 11:35:30;;;;;;;;;;;;;;;20.23;25.73;94445.94;5007464;28;19932;-50
2023/02/16 11:37:55;;;;;;;;;;;;;;;19.94;26.23;94436.75;5007787;28;20250;-50
2023/02/16 11:40:30;;;;;;;;;;;;;;;19.85;27.38;94443.06;5006930;28;19924;-49
2023/02/16 11:42:56;;;;;;;;;;;;;;;19.87;25.65;94427.13;5007814;28;19932;-49
2023/02/16 11:45:31;;;;;;;;;;;;;;;20.35;26.45;94427.22;5006364;28;19917;-48
2023/02/16 11:48:06;;;;;;;;;;;;;;;20.26;25.86;94425.88;5007858;28;19925;-50
2023/02/16 11:50:34;;;;;;;;;;;;;;;19.79;25.18;94428.59;5007747;28;20004;-49
2023/02/16 11:53:08;;;;;;;;;;;;;;;19.70;26.90;94429.28;5007726;28;19917;-51
2023/02/16 11:55:34;;;;;;;;;;;;;;;19.69;28.07;94420.16;5007887;28;20533;-49
2023/02/16 11:58:18;;;;;;;;;;;;;;;20.27;26.56;94421.75;5015440;28;19922;-51
2023/02/16 12:00:56;;;;;;;;;;;;;;;20.30;26.10;94414.22;5007897;28;20004;-50
2023/02/16 12:03:45;;;;;;;;;;;;;;;19.71;27.35;94419.59;5007693;28;19913;-49
2023/02/16 12:06:13;;;;;;;;;;;;;;;19.52;27.27;94414.66;4970132;28;19913;-50
2023/02/16 12:08:41;;;;;;;;;;;;;;;19.44;28.03;94411.97;5007660;28;20353;-50
2023/02/16 12:11:09;;;;;;;;;;;;;;;19.71;24.57;94406.28;5011214;28;20340;-49
2023/02/16 12:13:35;;;;;;;;;;;;;;;19.49;26.42;94399.75;5011233;28;19914;-48
2023/02/16 12:16:23;;;;;;;;;;;;;;;18.72;25.87;94406.28;5010803;28;19976;-48
2023/02/16 12:18:58;;;;;;;;;;;;;;;18.87;23.42;94397.69;4999868;28;20540;-50
2023/02/16 12:21:23;;;;;;;;;;;;;;;18.85;25.79;94403.13;5020182;28;19932;-52
2023/02/16 12:23:57;;;;;;;;;;;;;;;18.55;27.73;94397.94;5030321;28;19917;-51
2023/02/16 12:26:30;;;;;;;;;;;;;;;17.90;27.08;94394.72;5025832;28;19988;-49
2023/02/16 12:28:56;;;;;;;;;;;;;;;17.97;26.54;94391.13;5010591;28;20516;-50
2023/02/16 12:31:38;;;;;;;;;;;;;;;17.25;27.58;94383.75;5015488;28;19968;-48
2023/02/16 12:34:13;;;;;;;;;;;;;;;17.46;25.18;94388.97;5014084;28;19960;-49
2023/02/16 12:36:57;;;;;;;;;;;;;;;17.62;26.94;94381.22;5010227;28;19924;-49
2023/02/16 12:39:22;;;;;;;;;;;;;;;16.94;30.09;94382.50;5010847;28;19927;-49
2023/02/16 12:42:06;;;;;;;;;;;;;;;16.36;29.61;94371.84;5010738;28;20325;-48
2023/02/16 12:44:36;;;;;;;;;;;;;;;17.18;29.08;94376.19;5010185;28;19923;-49
2023/02/16 12:47:04;;;;;;;;;;;;;;;16.96;29.58;94371.50;5009532;28;19917;-48
2023/02/16 12:49:49;;;;;;;;;;;;;;;16.37;30.05;94378.91;5009049;28;19917;-47
2023/02/16 12:52:21;;;;;;;;;;;;;;;16.32;29.71;94372.25;5010017;28;19993;-49
2023/02/16 12:54:47;;;;;;;;;;;;;;;16.36;27.59;94369.78;5010245;28;19913;-49
2023/02/16 12:57:13;;;;;;;;;;;;;;;16.01;28.65;94358.97;5009054;28;19913;-48
2023/02/16 12:59:54;;;;;;;;;;;;;;;16.45;29.53;94360.09;5009246;28;19960;-48
2023/02/16 13:02:19;;;;;;;;;;;;;;;15.98;28.15;94368.47;5009071;28;19917;-48
2023/02/16 13:04:46;;;;;;;;;;;;;;;15.73;29.94;94357.97;5009980;28;19913;-50
2023/02/16 13:07:15;;;;;;;;;;;;;;;15.91;29.23;94359.59;5010164;28;19936;-49
2023/02/16 13:09:48;;;;;;;;;;;;;;;15.52;31.88;94363.03;5010163;28;19913;-48
2023/02/16 13:12:17;;;;;;;;;;;;;;;15.63;32.03;94359.84;5008789;28;19917;-49
2023/02/16 13:14:42;;;;;;;;;;;;;;;15.46;31.93;94356.16;5010280;28;20008;-48
2023/02/16 13:17:13;;;;;;;;;;;;;;;15.52;31.21;94351.13;5013412;28;20032;-48
2023/02/16 13:19:38;;;;;;;;;;;;;;;15.84;31.86;94354.03;5027733;28;19924;-47
2023/02/16 13:22:13;;;;;;;;;;;;;;;15.62;31.54;94349.25;5029418;28;19917;-49
2023/02/16 13:24:38;;;;;;;;;;;;;;;15.69;32.44;94340.91;5029377;28;19917;-50
2023/02/16 13:27:22;;;;;;;;;;;;;;;15.27;30.33;94347.44;5019624;28;19917;-47
2023/02/16 13:29:54;;;;;;;;;;;;;;;15.24;28.81;94340.22;5009837;28;19917;-48
2023/02/16 13:32:27;;;;;;;;;;;;;;;14.63;31.98;94334.63;5018434;28;20313;-48
2023/02/16 13:34:52;;;;;;;;;;;;;;;14.71;29.65;94332.59;5029229;28;19921;-47
2023/02/16 13:37:30;;;;;;;;;;;;;;;14.87;29.43;94333.34;5029183;28;20649;-49